sensor_id;sensor_type;location;lat;lon;timestamp;pressure;altitude;pressure_sealevel;temperature;humidity
76216;BME280;65010;50.190;18.930;2023-05-10T00:00:44;98553.16;;;10.04;43.65
76216;BME280;65010;50.190;18.930;2023-05-10T00:03:49;98553.81;;;9.98;43.90
76216;BME280;65010;50.190;18.930;2023-05-10T00:06:56;98554.47;;;9.83;43.39
76216;BME280;65010;50.190;18.930;2023-05-10T00:10:02;98544.75;;;9.67;44.00
76216;BME280;65010;50.190;18.930;2023-05-10T00:13:09;98541.78;;;9.62;44.53
76216;BME280;65010;50.190;18.930;2023-05-10T00:16:17;98534.84;;;9.37;44.67
76216;BME280;65010;50.190;18.930;2023-05-10T00:19:24;98541.91;;;9.36;44.73
76216;BME280;65010;50.190;18.930;2023-05-10T00:22:29;98544.66;;;9.26;44.85
76216;BME280;65010;50.190;18.930;2023-05-10T00:25:36;98551.19;;;9.14;45.56
76216;BME280;65010;50.190;18.930;2023-05-10T00:28:41;98546.59;;;9.08;45.57
76216;BME280;65010;50.190;18.930;2023-05-10T00:31:50;98542.66;;;9.04;46.24
76216;BME280;65010;50.190;18.930;2023-05-10T00:34:59;98541.97;;;8.94;45.88
76216;BME280;65010;50.190;18.930;2023-05-10T00:38:05;98539.31;;;8.85;45.62
76216;BME280;65010;50.190;18.930;2023-05-10T00:41:11;98540.59;;;8.81;46.29
76216;BME280;65010;50.190;18.930;2023-05-10T00:44:20;98537.97;;;8.81;46.44
76216;BME280;65010;50.190;18.930;2023-05-10T00:47:28;98535.19;;;8.75;46.58
76216;BME280;65010;50.190;18.930;2023-05-10T00:50:36;98531.06;;;8.72;46.22
76216;BME280;65010;50.190;18.930;2023-05-10T00:53:43;98530.88;;;8.65;46.55
76216;BME280;65010;50.190;18.930;2023-05-10T00:56:51;98532.00;;;8.63;46.73
76216;BME280;65010;50.190;18.930;2023-05-10T00:59:59;98535.59;;;8.62;47.07
76216;BME280;65010;50.190;18.930;2023-05-10T01:03:10;98530.50;;;8.60;46.98
76216;BME280;65010;50.190;18.930;2023-05-10T01:06:16;98529.53;;;8.61;47.25
76216;BME280;65010;50.190;18.930;2023-05-10T01:09:24;98531.16;;;8.62;46.78
76216;BME280;65010;50.190;18.930;2023-05-10T01:12:31;98527.69;;;8.54;47.31
76216;BME280;65010;50.190;18.930;2023-05-10T01:15:39;98530.44;;;8.44;47.15
76216;BME280;65010;50.190;18.930;2023-05-10T01:18:49;98520.13;;;8.42;47.24
76216;BME280;65010;50.190;18.930;2023-05-10T01:22:06;98517.03;;;8.47;47.25
76216;BME280;65010;50.190;18.930;2023-05-10T01:26:03;98513.59;;;8.46;47.28
76216;BME280;65010;50.190;18.930;2023-05-10T01:29:41;98517.31;;;8.44;47.10
76216;BME280;65010;50.190;18.930;2023-05-10T01:33:26;98512.19;;;8.34;47.18
76216;BME280;65010;50.190;18.930;2023-05-10T01:36:43;98515.63;;;8.26;47.78
76216;BME280;65010;50.190;18.930;2023-05-10T01:40:00;98514.69;;;8.18;47.91
76216;BME280;65010;50.190;18.930;2023-05-10T01:43:19;98514.50;;;8.11;47.79
76216;BME280;65010;50.190;18.930;2023-05-10T01:46:35;98504.31;;;8.08;48.36
76216;BME280;65010;50.190;18.930;2023-05-10T01:49:50;98501.69;;;8.08;48.10
76216;BME280;65010;50.190;18.930;2023-05-10T01:53:00;98503.31;;;8.01;48.16
76216;BME280;65010;50.190;18.930;2023-05-10T01:56:10;98501.16;;;7.96;48.20
76216;BME280;65010;50.190;18.930;2023-05-10T01:59:19;98504.69;;;7.87;48.50
76216;BME280;65010;50.190;18.930;2023-05-10T02:02:30;98493.16;;;7.80;48.99
76216;BME280;65010;50.190;18.930;2023-05-10T02:05:48;98483.47;;;7.72;48.85
76216;BME280;65010;50.190;18.930;2023-05-10T02:08:57;98494.44;;;7.76;48.93
76216;BME280;65010;50.190;18.930;2023-05-10T02:12:07;98482.81;;;7.70;49.08
76216;BME280;65010;50.190;18.930;2023-05-10T02:15:19;98484.91;;;7.66;49.07
76216;BME280;65010;50.190;18.930;2023-05-10T02:18:27;98489.00;;;7.69;49.20
76216;BME280;65010;50.190;18.930;2023-05-10T02:21:39;98482.75;;;7.62;49.49
76216;BME280;65010;50.190;18.930;2023-05-10T02:24:47;98484.38;;;7.63;49.55
76216;BME280;65010;50.190;18.930;2023-05-10T02:28:01;98485.50;;;7.60;49.46
76216;BME280;65010;50.190;18.930;2023-05-10T02:31:11;98486.84;;;7.64;49.34
76216;BME280;65010;50.190;18.930;2023-05-10T02:34:21;98484.38;;;7.63;49.24
76216;BME280;65010;50.190;18.930;2023-05-10T02:37:31;98475.06;;;7.60;49.72
76216;BME280;65010;50.190;18.930;2023-05-10T02:40:43;98484.38;;;7.63;49.19
76216;BME280;65010;50.190;18.930;2023-05-10T02:43:56;98478.78;;;7.58;49.25
76216;BME280;65010;50.190;18.930;2023-05-10T02:47:07;98484.84;;;7.58;49.43
76216;BME280;65010;50.190;18.930;2023-05-10T02:50:13;98479.69;;;7.66;49.47
76216;BME280;65010;50.190;18.930;2023-05-10T02:53:31;98484.09;;;7.66;49.33
76216;BME280;65010;50.190;18.930;2023-05-10T02:56:44;98481.69;;;7.73;49.81
76216;BME280;65010;50.190;18.930;2023-05-10T02:59:56;98479.88;;;7.73;48.79
76216;BME280;65010;50.190;18.930;2023-05-10T03:03:02;98483.63;;;7.70;48.96
76216;BME280;65010;50.190;18.930;2023-05-10T03:06:10;98480.50;;;7.67;49.32
76216;BME280;65010;50.190;18.930;2023-05-10T03:09:19;98486.84;;;7.64;49.50
76216;BME280;65010;50.190;18.930;2023-05-10T03:12:37;98484.66;;;7.60;49.18
76216;BME280;65010;50.190;18.930;2023-05-10T03:15:59;98485.44;;;7.52;49.07
76216;BME280;65010;50.190;18.930;2023-05-10T03:19:21;98479.31;;;7.43;49.88
76216;BME280;65010;50.190;18.930;2023-05-10T03:22:38;98488.28;;;7.41;49.68
76216;BME280;65010;50.190;18.930;2023-05-10T03:25:53;98486.34;;;7.43;49.70
76216;BME280;65010;50.190;18.930;2023-05-10T03:29:02;98494.50;;;7.40;49.58
76216;BME280;65010;50.190;18.930;2023-05-10T03:32:11;98479.63;;;7.40;49.91
76216;BME280;65010;50.190;18.930;2023-05-10T03:35:16;98481.94;;;7.43;50.04
76216;BME280;65010;50.190;18.930;2023-05-10T03:38:23;98477.22;;;7.47;49.67
76216;BME280;65010;50.190;18.930;2023-05-10T03:41:34;98471.53;;;7.52;50.05
76216;BME280;65010;50.190;18.930;2023-05-10T03:44:40;98480.44;;;7.59;49.78
76216;BME280;65010;50.190;18.930;2023-05-10T03:47:46;98470.09;;;7.57;49.74
76216;BME280;65010;50.190;18.930;2023-05-10T03:50:53;98471.31;;;7.63;49.69
76216;BME280;65010;50.190;18.930;2023-05-10T03:53:59;98479.63;;;7.58;49.49
76216;BME280;65010;50.190;18.930;2023-05-10T03:57:09;98477.16;;;7.57;49.53
76216;BME280;65010;50.190;18.930;2023-05-10T04:00:15;98474.53;;;7.57;49.85
76216;BME280;65010;50.190;18.930;2023-05-10T04:03:26;98473.94;;;7.45;49.61
76216;BME280;65010;50.190;18.930;2023-05-10T04:06:32;98476.41;;;7.46;49.79
76216;BME280;65010;50.190;18.930;2023-05-10T04:09:40;98479.47;;;7.42;49.89
76216;BME280;65010;50.190;18.930;2023-05-10T04:12:48;98479.38;;;7.34;50.11
76216;BME280;65010;50.190;18.930;2023-05-10T04:15:54;98481.84;;;7.35;50.43
76216;BME280;65010;50.190;18.930;2023-05-10T04:19:00;98476.63;;;7.35;50.41
76216;BME280;65010;50.190;18.930;2023-05-10T04:22:08;98479.78;;;7.39;50.64
76216;BME280;65010;50.190;18.930;2023-05-10T04:25:13;98483.19;;;7.39;50.81
76216;BME280;65010;50.190;18.930;2023-05-10T04:28:22;98486.06;;;7.46;50.43
76216;BME280;65010;50.190;18.930;2023-05-10T04:31:28;98484.78;;;7.50;50.45
76216;BME280;65010;50.190;18.930;2023-05-10T04:34:35;98480.13;;;7.62;50.63
76216;BME280;65010;50.190;18.930;2023-05-10T04:37:41;98483.78;;;7.69;50.15
76216;BME280;65010;50.190;18.930;2023-05-10T04:40:47;98476.50;;;7.81;50.27
76216;BME280;65010;50.190;18.930;2023-05-10T04:43:55;98481.41;;;7.84;50.08
76216;BME280;65010;50.190;18.930;2023-05-10T04:47:02;98486.50;;;7.85;49.92
76216;BME280;65010;50.190;18.930;2023-05-10T04:50:08;98481.03;;;7.97;49.72
76216;BME280;65010;50.190;18.930;2023-05-10T04:53:15;98489.09;;;8.03;49.59
76216;BME280;65010;50.190;18.930;2023-05-10T04:56:21;98486.66;;;8.10;49.80
76216;BME280;65010;50.190;18.930;2023-05-10T04:59:30;98480.31;;;8.13;49.56
76216;BME280;65010;50.190;18.930;2023-05-10T05:02:36;98478.72;;;8.20;49.41
76216;BME280;65010;50.190;18.930;2023-05-10T05:05:43;98474.81;;;8.24;49.10
76216;BME280;65010;50.190;18.930;2023-05-10T05:08:49;98479.16;;;8.33;48.99
76216;BME280;65010;50.190;18.930;2023-05-10T05:11:55;98475.63;;;8.51;48.64
76216;BME280;65010;50.190;18.930;2023-05-10T05:15:05;98473.88;;;8.67;48.39
76216;BME280;65010;50.190;18.930;2023-05-10T05:18:12;98474.28;;;8.81;48.15
76216;BME280;65010;50.190;18.930;2023-05-10T05:21:19;98472.31;;;8.91;47.78
76216;BME280;65010;50.190;18.930;2023-05-10T05:24:27;98473.66;;;9.03;47.50
76216;BME280;65010;50.190;18.930;2023-05-10T05:27:32;98468.75;;;9.08;47.37
76216;BME280;65010;50.190;18.930;2023-05-10T05:30:41;98470.09;;;9.21;47.62
76216;BME280;65010;50.190;18.930;2023-05-10T05:33:47;98468.47;;;9.28;47.10
76216;BME280;65010;50.190;18.930;2023-05-10T05:36:54;98475.19;;;9.39;47.00
76216;BME280;65010;50.190;18.930;2023-05-10T05:39:59;98472.59;;;9.47;47.18
76216;BME280;65010;50.190;18.930;2023-05-10T05:43:06;98463.72;;;9.56;47.22
76216;BME280;65010;50.190;18.930;2023-05-10T05:46:15;98476.00;;;9.72;46.36
76216;BME280;65010;50.190;18.930;2023-05-10T05:49:21;98471.44;;;9.82;45.92
76216;BME280;65010;50.190;18.930;2023-05-10T05:52:27;98469.28;;;9.94;45.63
76216;BME280;65010;50.190;18.930;2023-05-10T05:55:33;98472.25;;;10.07;45.58
76216;BME280;65010;50.190;18.930;2023-05-10T05:58:39;98469.72;;;10.22;45.06
76216;BME280;65010;50.190;18.930;2023-05-10T06:01:49;98467.41;;;10.36;44.15
76216;BME280;65010;50.190;18.930;2023-05-10T06:04:55;98470.91;;;10.59;44.70
76216;BME280;65010;50.190;18.930;2023-05-10T06:08:02;98469.84;;;10.77;44.25
76216;BME280;65010;50.190;18.930;2023-05-10T06:11:08;98467.66;;;10.88;43.76
76216;BME280;65010;50.190;18.930;2023-05-10T06:14:14;98470.06;;;10.98;43.64
76216;BME280;65010;50.190;18.930;2023-05-10T06:17:26;98470.50;;;11.10;44.59
76216;BME280;65010;50.190;18.930;2023-05-10T06:20:32;98466.16;;;11.17;43.18
76216;BME280;65010;50.190;18.930;2023-05-10T06:23:38;98470.53;;;11.33;43.80
76216;BME280;65010;50.190;18.930;2023-05-10T06:26:44;98470.94;;;11.45;42.81
76216;BME280;65010;50.190;18.930;2023-05-10T06:29:52;98467.94;;;11.48;42.41
76216;BME280;65010;50.190;18.930;2023-05-10T06:33:17;98468.81;;;11.63;43.40
76216;BME280;65010;50.190;18.930;2023-05-10T06:36:22;98464.59;;;11.77;41.56
76216;BME280;65010;50.190;18.930;2023-05-10T06:39:30;98465.31;;;11.86;41.69
76216;BME280;65010;50.190;18.930;2023-05-10T06:42:36;98470.72;;;11.93;40.64
76216;BME280;65010;50.190;18.930;2023-05-10T06:45:42;98463.16;;;12.04;41.38
76216;BME280;65010;50.190;18.930;2023-05-10T06:48:51;98454.72;;;12.09;39.84
76216;BME280;65010;50.190;18.930;2023-05-10T06:51:57;98449.63;;;12.22;41.67
76216;BME280;65010;50.190;18.930;2023-05-10T06:55:04;98453.56;;;12.41;41.17
76216;BME280;65010;50.190;18.930;2023-05-10T06:58:11;98452.94;;;12.54;40.30
76216;BME280;65010;50.190;18.930;2023-05-10T07:01:17;98452.53;;;12.72;41.13
76216;BME280;65010;50.190;18.930;2023-05-10T07:04:26;98448.94;;;12.95;39.19
76216;BME280;65010;50.190;18.930;2023-05-10T07:07:35;98438.22;;;13.18;37.38
76216;BME280;65010;50.190;18.930;2023-05-10T07:10:41;98444.56;;;13.45;36.25
76216;BME280;65010;50.190;18.930;2023-05-10T07:13:47;98440.38;;;13.79;35.94
76216;BME280;65010;50.190;18.930;2023-05-10T07:16:54;98436.94;;;14.06;34.33
76216;BME280;65010;50.190;18.930;2023-05-10T07:20:02;98452.84;;;14.55;35.39
76216;BME280;65010;50.190;18.930;2023-05-10T07:23:12;98450.56;;;15.00;33.96
76216;BME280;65010;50.190;18.930;2023-05-10T07:26:20;98431.72;;;15.63;33.04
76216;BME280;65010;50.190;18.930;2023-05-10T07:29:27;98427.31;;;16.42;32.12
76216;BME280;65010;50.190;18.930;2023-05-10T07:32:33;98425.84;;;17.30;31.32
76216;BME280;65010;50.190;18.930;2023-05-10T07:35:42;98426.53;;;18.00;29.56
76216;BME280;65010;50.190;18.930;2023-05-10T07:38:48;98421.81;;;18.58;27.70
76216;BME280;65010;50.190;18.930;2023-05-10T07:41:55;98410.59;;;19.28;27.38
76216;BME280;65010;50.190;18.930;2023-05-10T07:45:01;98411.97;;;19.73;27.21
76216;BME280;65010;50.190;18.930;2023-05-10T07:48:07;98409.16;;;20.38;26.29
76216;BME280;65010;50.190;18.930;2023-05-10T07:51:16;98404.84;;;21.07;25.56
76216;BME280;65010;50.190;18.930;2023-05-10T07:54:22;98411.31;;;21.73;23.54
76216;BME280;65010;50.190;18.930;2023-05-10T07:57:28;98411.13;;;22.19;22.05
76216;BME280;65010;50.190;18.930;2023-05-10T08:00:34;98401.84;;;22.71;21.57
76216;BME280;65010;50.190;18.930;2023-05-10T08:03:41;98411.22;;;22.95;21.12
76216;BME280;65010;50.190;18.930;2023-05-10T08:06:51;98409.72;;;23.32;20.82
76216;BME280;65010;50.190;18.930;2023-05-10T08:09:56;98409.72;;;23.69;20.33
76216;BME280;65010;50.190;18.930;2023-05-10T08:13:03;98403.50;;;24.01;20.56
76216;BME280;65010;50.190;18.930;2023-05-10T08:16:09;98397.22;;;24.33;19.63
76216;BME280;65010;50.190;18.930;2023-05-10T08:19:16;98397.47;;;24.31;19.08
76216;BME280;65010;50.190;18.930;2023-05-10T08:22:26;98401.56;;;23.86;19.37
76216;BME280;65010;50.190;18.930;2023-05-10T08:25:32;98397.41;;;23.73;19.61
76216;BME280;65010;50.190;18.930;2023-05-10T08:28:38;98403.88;;;23.40;19.64
76216;BME280;65010;50.190;18.930;2023-05-10T08:31:45;98395.19;;;23.65;19.13
76216;BME280;65010;50.190;18.930;2023-05-10T08:34:50;98394.41;;;24.02;18.39
76216;BME280;65010;50.190;18.930;2023-05-10T08:38:00;98384.47;;;24.71;18.51
76216;BME280;65010;50.190;18.930;2023-05-10T08:41:06;98394.22;;;25.18;16.70
76216;BME280;65010;50.190;18.930;2023-05-10T08:44:12;98392.31;;;25.65;17.17
76216;BME280;65010;50.190;18.930;2023-05-10T08:47:21;98389.19;;;26.38;17.42
76216;BME280;65010;50.190;18.930;2023-05-10T08:50:29;98394.38;;;26.84;16.65
76216;BME280;65010;50.190;18.930;2023-05-10T08:53:39;98398.16;;;27.23;16.34
76216;BME280;65010;50.190;18.930;2023-05-10T08:56:46;98408.25;;;27.46;15.98
76216;BME280;65010;50.190;18.930;2023-05-10T08:59:52;98394.47;;;27.77;15.91
76216;BME280;65010;50.190;18.930;2023-05-10T09:03:00;98383.84;;;27.86;15.84
76216;BME280;65010;50.190;18.930;2023-05-10T09:06:06;98387.00;;;28.41;16.31
76216;BME280;65010;50.190;18.930;2023-05-10T09:09:17;98409.69;;;28.21;15.27
76216;BME280;65010;50.190;18.930;2023-05-10T09:12:23;98388.84;;;28.46;15.70
76216;BME280;65010;50.190;18.930;2023-05-10T09:15:30;98379.94;;;29.02;15.57
76216;BME280;65010;50.190;18.930;2023-05-10T09:18:36;98375.25;;;29.60;15.60
76216;BME280;65010;50.190;18.930;2023-05-10T09:21:43;98385.09;;;30.39;14.76
76216;BME280;65010;50.190;18.930;2023-05-10T09:25:03;98385.31;;;30.92;13.39
76216;BME280;65010;50.190;18.930;2023-05-10T09:28:14;98389.56;;;30.48;14.01
76216;BME280;65010;50.190;18.930;2023-05-10T09:31:19;98390.47;;;30.30;13.93
76216;BME280;65010;50.190;18.930;2023-05-10T09:34:31;98381.78;;;30.42;13.56
76216;BME280;65010;50.190;18.930;2023-05-10T09:37:43;98387.47;;;30.04;13.67
76216;BME280;65010;50.190;18.930;2023-05-10T09:40:54;98382.81;;;30.32;13.80
76216;BME280;65010;50.190;18.930;2023-05-10T09:44:00;98374.53;;;31.24;13.27
76216;BME280;65010;50.190;18.930;2023-05-10T09:47:06;98391.72;;;31.64;13.01
76216;BME280;65010;50.190;18.930;2023-05-10T09:50:12;98387.91;;;31.65;13.14
76216;BME280;65010;50.190;18.930;2023-05-10T09:53:21;98391.56;;;32.01;13.37
76216;BME280;65010;50.190;18.930;2023-05-10T09:56:36;98376.88;;;32.68;13.32
76216;BME280;65010;50.190;18.930;2023-05-10T09:59:44;98374.06;;;33.55;13.15
76216;BME280;65010;50.190;18.930;2023-05-10T10:02:55;98372.25;;;34.45;11.67
76216;BME280;65010;50.190;18.930;2023-05-10T10:06:03;98369.44;;;34.33;12.03
76216;BME280;65010;50.190;18.930;2023-05-10T10:09:32;98370.72;;;33.97;11.69
76216;BME280;65010;50.190;18.930;2023-05-10T10:12:43;98365.69;;;34.16;11.37
76216;BME280;65010;50.190;18.930;2023-05-10T10:15:49;98356.81;;;34.49;11.50
76216;BME280;65010;50.190;18.930;2023-05-10T10:18:58;98340.16;;;35.05;11.19
76216;BME280;65010;50.190;18.930;2023-05-10T10:22:04;98348.75;;;34.95;10.58
76216;BME280;65010;50.190;18.930;2023-05-10T10:25:16;98353.97;;;34.16;10.98
76216;BME280;65010;50.190;18.930;2023-05-10T10:28:38;98347.47;;;34.29;12.36
76216;BME280;65010;50.190;18.930;2023-05-10T10:32:10;98340.06;;;34.29;10.86
76216;BME280;65010;50.190;18.930;2023-05-10T10:35:28;98361.47;;;33.33;11.13
76216;BME280;65010;50.190;18.930;2023-05-10T10:38:56;98335.09;;;32.90;12.40
76216;BME280;65010;50.190;18.930;2023-05-10T10:42:06;98323.03;;;32.21;12.10
76216;BME280;65010;50.190;18.930;2023-05-10T10:45:15;98337.66;;;32.86;13.02
76216;BME280;65010;50.190;18.930;2023-05-10T10:48:22;98327.34;;;33.27;13.30
76216;BME280;65010;50.190;18.930;2023-05-10T10:51:29;98329.78;;;34.14;12.22
76216;BME280;65010;50.190;18.930;2023-05-10T10:54:37;98322.00;;;35.00;11.23
76216;BME280;65010;50.190;18.930;2023-05-10T10:57:47;98323.69;;;35.96;11.30
76216;BME280;65010;50.190;18.930;2023-05-10T11:01:10;98312.19;;;36.84;10.12
76216;BME280;65010;50.190;18.930;2023-05-10T11:04:20;98328.63;;;36.31;9.78
76216;BME280;65010;50.190;18.930;2023-05-10T11:07:26;98324.81;;;36.20;9.56
76216;BME280;65010;50.190;18.930;2023-05-10T11:10:33;98316.47;;;36.69;10.42
76216;BME280;65010;50.190;18.930;2023-05-10T11:13:41;98308.69;;;37.43;10.32
76216;BME280;65010;50.190;18.930;2023-05-10T11:16:55;98310.78;;;37.66;9.83
76216;BME280;65010;50.190;18.930;2023-05-10T11:20:07;98323.28;;;36.47;9.52
76216;BME280;65010;50.190;18.930;2023-05-10T11:23:14;98311.09;;;36.73;9.89
76216;BME280;65010;50.190;18.930;2023-05-10T11:26:20;98306.47;;;37.33;9.80
76216;BME280;65010;50.190;18.930;2023-05-10T11:29:28;98313.56;;;36.90;10.04
76216;BME280;65010;50.190;18.930;2023-05-10T11:32:37;98301.56;;;37.11;10.46
76216;BME280;65010;50.190;18.930;2023-05-10T11:35:44;98299.97;;;37.25;9.77
76216;BME280;65010;50.190;18.930;2023-05-10T11:38:51;98299.44;;;36.76;10.27
76216;BME280;65010;50.190;18.930;2023-05-10T11:41:58;98296.13;;;36.01;9.82
76216;BME280;65010;50.190;18.930;2023-05-10T11:45:06;98297.38;;;34.13;11.05
76216;BME280;65010;50.190;18.930;2023-05-10T11:48:16;98292.84;;;32.84;11.65
76216;BME280;65010;50.190;18.930;2023-05-10T11:51:26;98310.06;;;32.18;12.84
76216;BME280;65010;50.190;18.930;2023-05-10T11:54:32;98305.97;;;32.82;12.97
76216;BME280;65010;50.190;18.930;2023-05-10T11:57:40;98294.22;;;33.16;12.15
76216;BME280;65010;50.190;18.930;2023-05-10T12:00:49;98293.13;;;33.64;11.58
76216;BME280;65010;50.190;18.930;2023-05-10T12:03:59;98290.44;;;32.74;11.74
76216;BME280;65010;50.190;18.930;2023-05-10T12:07:06;98293.78;;;31.69;12.31
76216;BME280;65010;50.190;18.930;2023-05-10T12:10:13;98298.25;;;32.40;14.32
76216;BME280;65010;50.190;18.930;2023-05-10T12:13:21;98289.59;;;33.55;12.12
76216;BME280;65010;50.190;18.930;2023-05-10T12:16:29;98287.75;;;33.77;11.09
76216;BME280;65010;50.190;18.930;2023-05-10T12:19:41;98270.03;;;34.42;11.99
76216;BME280;65010;50.190;18.930;2023-05-10T12:22:52;98280.19;;;35.08;11.72
76216;BME280;65010;50.190;18.930;2023-05-10T12:26:03;98301.19;;;34.96;10.43
76216;BME280;65010;50.190;18.930;2023-05-10T12:29:13;98286.50;;;35.00;11.36
76216;BME280;65010;50.190;18.930;2023-05-10T12:32:21;98281.50;;;35.73;10.62
76216;BME280;65010;50.190;18.930;2023-05-10T12:35:49;98280.88;;;36.69;10.49
76216;BME280;65010;50.190;18.930;2023-05-10T12:39:02;98283.13;;;36.39;9.77
76216;BME280;65010;50.190;18.930;2023-05-10T12:42:09;98282.41;;;35.77;9.42
76216;BME280;65010;50.190;18.930;2023-05-10T12:45:17;98280.03;;;35.87;10.77
76216;BME280;65010;50.190;18.930;2023-05-10T12:48:24;98291.09;;;36.03;10.45
76216;BME280;65010;50.190;18.930;2023-05-10T12:51:34;98276.41;;;36.36;10.68
76216;BME280;65010;50.190;18.930;2023-05-10T12:54:40;98270.88;;;36.89;10.17
76216;BME280;65010;50.190;18.930;2023-05-10T12:57:48;98270.22;;;36.80;9.50
76216;BME280;65010;50.190;18.930;2023-05-10T13:00:54;98265.66;;;36.56;9.42
76216;BME280;65010;50.190;18.930;2023-05-10T13:04:01;98272.91;;;36.23;10.08
76216;BME280;65010;50.190;18.930;2023-05-10T13:07:10;98275.47;;;36.04;10.21
76216;BME280;65010;50.190;18.930;2023-05-10T13:10:16;98273.66;;;35.83;9.79
76216;BME280;65010;50.190;18.930;2023-05-10T13:13:22;98260.09;;;35.50;10.03
76216;BME280;65010;50.190;18.930;2023-05-10T13:16:29;98271.72;;;35.72;9.44
76216;BME280;65010;50.190;18.930;2023-05-10T13:19:35;98255.19;;;35.43;10.71
76216;BME280;65010;50.190;18.930;2023-05-10T13:22:44;98255.16;;;35.93;10.67
76216;BME280;65010;50.190;18.930;2023-05-10T13:25:52;98257.44;;;35.91;10.35
76216;BME280;65010;50.190;18.930;2023-05-10T13:28:58;98250.28;;;34.79;10.76
76216;BME280;65010;50.190;18.930;2023-05-10T13:32:04;98252.22;;;33.94;11.20
76216;BME280;65010;50.190;18.930;2023-05-10T13:35:11;98246.06;;;32.90;11.50
76216;BME280;65010;50.190;18.930;2023-05-10T13:38:20;98238.50;;;33.52;12.13
76216;BME280;65010;50.190;18.930;2023-05-10T13:41:26;98239.16;;;34.08;12.29
76216;BME280;65010;50.190;18.930;2023-05-10T13:44:32;98230.59;;;33.89;11.45
76216;BME280;65010;50.190;18.930;2023-05-10T13:47:39;98222.53;;;34.22;11.54
76216;BME280;65010;50.190;18.930;2023-05-10T13:50:44;98229.59;;;33.34;11.26
76216;BME280;65010;50.190;18.930;2023-05-10T13:53:54;98224.50;;;32.68;12.41
76216;BME280;65010;50.190;18.930;2023-05-10T13:57:00;98235.16;;;31.28;13.06
76216;BME280;65010;50.190;18.930;2023-05-10T14:00:08;98229.69;;;30.97;13.63
76216;BME280;65010;50.190;18.930;2023-05-10T14:03:15;98228.34;;;30.86;13.68
76216;BME280;65010;50.190;18.930;2023-05-10T14:06:21;98220.72;;;30.06;13.49
76216;BME280;65010;50.190;18.930;2023-05-10T14:09:30;98231.09;;;29.35;14.62
76216;BME280;65010;50.190;18.930;2023-05-10T14:12:36;98216.03;;;29.84;14.57
76216;BME280;65010;50.190;18.930;2023-05-10T14:15:42;98219.31;;;30.31;14.56
76216;BME280;65010;50.190;18.930;2023-05-10T14:18:49;98219.72;;;31.06;14.11
76216;BME280;65010;50.190;18.930;2023-05-10T14:21:55;98218.97;;;31.55;13.68
76216;BME280;65010;50.190;18.930;2023-05-10T14:25:04;98213.44;;;32.03;13.20
76216;BME280;65010;50.190;18.930;2023-05-10T14:28:10;98206.41;;;32.72;12.61
76216;BME280;65010;50.190;18.930;2023-05-10T14:31:17;98209.75;;;32.69;12.05
76216;BME280;65010;50.190;18.930;2023-05-10T14:34:23;98198.25;;;32.46;12.10
76216;BME280;65010;50.190;18.930;2023-05-10T14:37:30;98213.00;;;32.27;12.10
76216;BME280;65010;50.190;18.930;2023-05-10T14:40:38;98208.34;;;32.10;13.20
76216;BME280;65010;50.190;18.930;2023-05-10T14:43:47;98212.63;;;31.85;12.71
76216;BME280;65010;50.190;18.930;2023-05-10T14:46:53;98225.81;;;30.89;13.54
76216;BME280;65010;50.190;18.930;2023-05-10T14:50:00;98219.22;;;30.37;14.25
76216;BME280;65010;50.190;18.930;2023-05-10T14:53:06;98216.34;;;29.97;15.14
76216;BME280;65010;50.190;18.930;2023-05-10T14:56:16;98207.84;;;29.48;14.53
76216;BME280;65010;50.190;18.930;2023-05-10T14:59:22;98213.66;;;29.55;15.46
76216;BME280;65010;50.190;18.930;2023-05-10T15:02:30;98200.81;;;29.61;14.92
76216;BME280;65010;50.190;18.930;2023-05-10T15:05:36;98199.72;;;29.62;15.26
76216;BME280;65010;50.190;18.930;2023-05-10T15:08:43;98209.84;;;29.56;15.46
76216;BME280;65010;50.190;18.930;2023-05-10T15:11:51;98213.34;;;29.43;15.47
76216;BME280;65010;50.190;18.930;2023-05-10T15:15:01;98220.13;;;29.12;15.13
76216;BME280;65010;50.190;18.930;2023-05-10T15:18:09;98211.06;;;28.56;15.23
76216;BME280;65010;50.190;18.930;2023-05-10T15:21:19;98206.47;;;28.19;16.22
76216;BME280;65010;50.190;18.930;2023-05-10T15:24:25;98220.28;;;28.17;16.25
76216;BME280;65010;50.190;18.930;2023-05-10T15:27:34;98203.78;;;28.00;16.37
76216;BME280;65010;50.190;18.930;2023-05-10T15:30:40;98206.56;;;27.95;15.91
76216;BME280;65010;50.190;18.930;2023-05-10T15:33:49;98213.09;;;27.70;16.72
76216;BME280;65010;50.190;18.930;2023-05-10T15:36:55;98202.09;;;27.85;16.74
76216;BME280;65010;50.190;18.930;2023-05-10T15:40:02;98201.28;;;28.04;16.37
76216;BME280;65010;50.190;18.930;2023-05-10T15:43:14;98202.03;;;27.90;16.06
76216;BME280;65010;50.190;18.930;2023-05-10T15:46:21;98208.38;;;27.32;16.61
76216;BME280;65010;50.190;18.930;2023-05-10T15:49:27;98207.34;;;27.04;16.44
76216;BME280;65010;50.190;18.930;2023-05-10T15:52:33;98212.91;;;26.84;16.69
76216;BME280;65010;50.190;18.930;2023-05-10T15:55:39;98208.31;;;26.10;17.09
76216;BME280;65010;50.190;18.930;2023-05-10T15:58:48;98209.56;;;25.73;17.82
76216;BME280;65010;50.190;18.930;2023-05-10T16:01:54;98212.78;;;25.75;17.88
76216;BME280;65010;50.190;18.930;2023-05-10T16:05:02;98216.31;;;25.60;18.07
76216;BME280;65010;50.190;18.930;2023-05-10T16:08:08;98214.19;;;25.52;18.61
76216;BME280;65010;50.190;18.930;2023-05-10T16:11:15;98212.69;;;25.20;18.63
76216;BME280;65010;50.190;18.930;2023-05-10T16:14:23;98227.25;;;24.53;19.54
76216;BME280;65010;50.190;18.930;2023-05-10T16:17:29;98216.66;;;23.90;19.73
76216;BME280;65010;50.190;18.930;2023-05-10T16:20:35;98223.81;;;23.74;20.57
76216;BME280;65010;50.190;18.930;2023-05-10T16:23:53;98228.88;;;23.70;20.35
76216;BME280;65010;50.190;18.930;2023-05-10T16:26:59;98221.31;;;23.57;20.98
76216;BME280;65010;50.190;18.930;2023-05-10T16:30:08;98222.13;;;23.63;20.88
76216;BME280;65010;50.190;18.930;2023-05-10T16:33:15;98222.75;;;23.27;20.84